Cape Canaveral AFS Skid Strip Cocoa Beach US
ICAO: KXMR
IATA: XMR
Category: Medium
Scheduled Services: No

Elevation: 10 ft
TransAlt. 18000 ft.

Airport Communications:
ORLANDO APP/DEP:134.95
PMSV METRO:344.6
CAPE TWR:118.625
:239.05

KXMR Zoom In..

Runways:

(A) RW 13 length 10000 ft width 200 ft
---- / hdg 131

(B) RW 31 length 10000 ft width 200 ft
---- / hdg 311

Location; KXMR
Day. 26 / Time. 13.56 Zulu
* Altimeter: 29.98
* Temperature: 28° c. 82.4°f.
* Wind from: 130° Speed 12 kn.
Dewpoint: 22° c.
Visibility: 10 Statute Miles.
Clouds: Clear (automated report).

KXMR 261356Z AUTO 13012KT 10SM CLR 28/22 A2998 RMK AO2 SLP155 T02750217 FZRANO $


Wind From 130°
Speed 12 kn.

 
 
jpsmedia.com for Web Design SOUNDCLOUD worldairports.se 2018   terms of use